Time;durP1;ratioP1;P1;durP2;ratioP2;P2;SDS_P1;SDS_P2;PMS_P1;PMS_P2;Temp;Humidity;BMP_temperature;BMP_pressure;BME280_temperature;BME280_humidity;BME280_pressure;Samples;Min_cycle;Max_cycle;Signal;HPM_P1;HPM_P2
2021/10/23 00:00:16;;;;;;;2.58;1.08;;;;;;;20.42;44.53;102373.97;4994104;28;20341;-60
2021/10/23 00:02:44;;;;;;;3.75;1.27;;;;;;;20.40;44.86;102378.53;4993467;28;20022;-59
2021/10/23 00:05:10;;;;;;;2.60;1.10;;;;;;;20.39;44.79;102374.16;4993726;28;20501;-60
2021/10/23 00:07:41;;;;;;;3.78;1.40;;;;;;;20.39;44.91;102379.47;4994147;28;20077;-60
2021/10/23 00:10:10;;;;;;;2.90;1.15;;;;;;;20.38;44.73;102382.25;4992107;28;20034;-60
2021/10/23 00:12:36;;;;;;;3.38;1.38;;;;;;;20.38;44.65;102369.00;4993965;28;20077;-60
2021/10/23 00:15:02;;;;;;;3.90;1.30;;;;;;;20.38;44.89;102371.66;4993487;28;20022;-60
2021/10/23 00:17:28;;;;;;;2.50;1.05;;;;;;;20.38;44.69;102382.25;4993597;28;20034;-59
2021/10/23 00:19:54;;;;;;;3.72;1.30;;;;;;;20.37;44.56;102391.13;4993964;28;20105;-58
2021/10/23 00:22:19;;;;;;;3.20;1.33;;;;;;;20.36;44.63;102390.28;4993785;28;20097;-59
2021/10/23 00:24:45;;;;;;;2.83;1.17;;;;;;;20.35;44.67;102393.03;4993218;28;20551;-60
2021/10/23 00:27:10;;;;;;;3.27;1.43;;;;;;;20.34;44.64;102393.97;4993499;28;20495;-60
2021/10/23 00:29:35;;;;;;;3.25;1.30;;;;;;;20.32;44.82;102398.53;4993763;28;20327;-60
2021/10/23 00:32:03;;;;;;;3.30;1.47;;;;;;;20.32;44.71;102399.38;4992806;28;20475;-60
2021/10/23 00:34:28;;;;;;;3.58;1.50;;;;;;;20.30;44.92;102402.13;4993773;28;20323;-60
2021/10/23 00:36:54;;;;;;;3.30;1.45;;;;;;;20.29;44.87;102405.72;4993889;28;20046;-59
2021/10/23 00:39:22;;;;;;;3.63;1.30;;;;;;;20.29;44.95;102413.66;4992492;28;20085;-63
2021/10/23 00:41:47;;;;;;;3.78;1.40;;;;;;;20.29;44.84;102410.16;4993719;28;20551;-60
2021/10/23 00:44:35;;;;;;;3.28;1.30;;;;;;;20.28;44.80;102406.69;4992687;28;20030;-59
2021/10/23 00:47:06;;;;;;;4.32;1.48;;;;;;;20.27;44.88;102398.84;4993423;28;20050;-60
2021/10/23 00:49:33;;;;;;;3.17;1.63;;;;;;;20.28;44.75;102400.50;4993587;28;20022;-60
2021/10/23 00:52:00;;;;;;;2.55;1.40;;;;;;;20.25;44.79;102408.66;4992471;28;20034;-60
2021/10/23 00:54:26;;;;;;;3.15;1.40;;;;;;;20.25;44.89;102408.66;4993171;28;20054;-60
2021/10/23 00:56:53;;;;;;;3.42;1.42;;;;;;;20.25;45.00;102416.59;4993304;28;20026;-59
2021/10/23 00:59:18;;;;;;;3.45;1.63;;;;;;;20.24;44.77;102418.41;4992447;28;20026;-60
2021/10/23 01:01:43;;;;;;;3.63;1.52;;;;;;;20.23;44.71;102414.06;4993444;28;20073;-59
2021/10/23 01:04:09;;;;;;;2.80;1.30;;;;;;;20.22;44.82;102414.16;4993117;28;20390;-59
2021/10/23 01:06:34;;;;;;;3.83;1.63;;;;;;;20.20;44.66;102406.34;4992719;28;20521;-59
2021/10/23 01:09:00;;;;;;;3.10;1.25;;;;;;;20.21;44.78;102405.38;4992974;28;20390;-60
2021/10/23 01:11:27;;;;;;;3.83;1.45;;;;;;;20.21;44.89;102413.31;4993068;28;20104;-60
2021/10/23 01:13:52;;;;;;;3.20;1.50;;;;;;;20.19;44.64;102407.28;4992531;28;20042;-60
2021/10/23 01:16:23;;;;;;;3.40;1.30;;;;;;;20.18;44.70;102402.91;4992752;28;20383;-61
2021/10/23 01:18:48;;;;;;;2.95;1.50;;;;;;;20.18;44.78;102400.28;4993246;28;20027;-59
2021/10/23 01:21:19;;;;;;;4.00;1.50;;;;;;;20.19;44.86;102403.78;4992042;28;20129;-60
2021/10/23 01:23:44;;;;;;;3.60;1.50;;;;;;;20.18;44.71;102405.56;4993035;28;20030;-60
2021/10/23 01:26:09;;;;;;;2.90;1.43;;;;;;;20.17;44.73;102403.91;4992440;28;20030;-59
2021/10/23 01:28:35;;;;;;;3.55;1.65;;;;;;;20.15;44.76;102411.06;4992658;28;20272;-59
2021/10/23 01:31:00;;;;;;;2.53;1.30;;;;;;;20.14;44.58;102401.44;4992746;28;20046;-60
2021/10/23 01:33:25;;;;;;;2.72;1.42;;;;;;;20.14;44.67;102401.44;4992741;28;20056;-60
2021/10/23 01:35:51;;;;;;;5.17;1.60;;;;;;;20.15;44.75;102404.94;4993239;28;20133;-60
2021/10/23 01:38:16;;;;;;;2.90;1.40;;;;;;;20.14;44.67;102408.50;4992571;28;20295;-60
2021/10/23 01:40:41;;;;;;;3.33;1.58;;;;;;;20.14;44.54;102416.47;4992470;28;20041;-61
2021/10/23 01:43:06;;;;;;;3.08;1.50;;;;;;;20.12;44.62;102416.56;4992691;28;20442;-58
2021/10/23 01:45:35;;;;;;;4.53;1.58;;;;;;;20.10;44.80;102410.53;4993104;28;20026;-59
2021/10/23 01:48:00;;;;;;;3.47;1.60;;;;;;;20.10;44.64;102421.09;4992002;28;20029;-60
2021/10/23 01:50:28;;;;;;;2.90;1.52;;;;;;;20.09;44.64;102411.47;4993082;28;20027;-60
2021/10/23 01:52:55;;;;;;;2.65;1.30;;;;;;;20.08;44.67;102415.91;4992721;28;20027;-59
2021/10/23 01:55:21;;;;;;;3.22;1.42;;;;;;;20.08;44.64;102394.75;4991679;28;20050;-63
2021/10/23 01:57:55;;;;;;;4.90;1.80;;;;;;;20.07;44.70;102400.13;4993015;28;20394;-61
2021/10/23 02:00:20;;;;;;;3.00;1.42;;;;;;;20.07;44.56;102406.25;4992687;28;20363;-60
2021/10/23 02:02:48;;;;;;;3.70;1.50;;;;;;;20.07;44.52;102398.31;4992062;28;20076;-61
2021/10/23 02:05:14;;;;;;;4.20;1.42;;;;;;;20.08;44.54;102399.19;4995892;28;20018;-59
2021/10/23 02:07:39;;;;;;;4.30;1.45;;;;;;;20.05;44.48;102409.97;4996289;28;20065;-59
2021/10/23 02:10:07;;;;;;;3.20;1.52;;;;;;;20.04;44.59;102406.47;4995255;28;20030;-59
2021/10/23 02:12:32;;;;;;;2.85;1.38;;;;;;;20.02;44.73;102399.59;4996110;28;20026;-60
2021/10/23 02:14:58;;;;;;;3.13;1.60;;;;;;;20.02;44.69;102399.59;4995783;28;20034;-60
2021/10/23 02:17:28;;;;;;;3.87;1.50;;;;;;;20.01;44.57;102384.66;4995441;28;20545;-60
2021/10/23 02:19:56;;;;;;;3.20;1.55;;;;;;;20.00;44.54;102394.41;4995928;28;20264;-59
2021/10/23 02:22:21;;;;;;;3.35;1.67;;;;;;;19.98;44.82;102391.00;4996288;28;20030;-59
2021/10/23 02:24:46;;;;;;;3.70;1.70;;;;;;;19.98;44.62;102379.56;4995316;28;20124;-59
2021/10/23 02:27:12;;;;;;;4.00;1.60;;;;;;;19.97;44.40;102388.47;4995849;28;20027;-59
2021/10/23 02:29:37;;;;;;;3.57;1.47;;;;;;;19.96;44.64;102377.00;4995298;28;20030;-59
2021/10/23 02:32:02;;;;;;;2.90;1.50;;;;;;;19.96;44.50;102395.53;4995476;28;20316;-60
2021/10/23 02:34:28;;;;;;;4.47;1.52;;;;;;;19.96;44.43;102392.03;4995731;28;20319;-59
2021/10/23 02:36:53;;;;;;;3.70;1.77;;;;;;;19.93;44.54;102386.00;4994460;28;20474;-60
2021/10/23 02:39:18;;;;;;;3.40;1.80;;;;;;;19.92;44.31;102396.69;4995496;28;20038;-60
2021/10/23 02:41:46;;;;;;;3.53;1.60;;;;;;;19.92;44.66;102389.59;4995845;28;20488;-59
2021/10/23 02:44:11;;;;;;;3.20;1.63;;;;;;;19.92;44.35;102399.34;4994656;28;20268;-59
2021/10/23 02:46:37;;;;;;;3.70;1.70;;;;;;;19.90;44.49;102395.91;4995877;28;20077;-61
2021/10/23 02:49:04;;;;;;;3.55;1.70;;;;;;;19.88;44.48;102396.03;4995241;28;20330;-59
2021/10/23 02:51:29;;;;;;;4.18;1.60;;;;;;;19.87;44.48;102391.69;4995069;28;20022;-59
2021/10/23 02:53:55;;;;;;;3.77;1.73;;;;;;;19.88;44.48;102400.47;4995613;28;20490;-60
2021/10/23 02:56:22;;;;;;;3.25;1.63;;;;;;;19.87;44.31;102402.28;4995076;28;20280;-60
2021/10/23 02:58:47;;;;;;;3.92;1.60;;;;;;;19.88;44.25;102408.41;4994773;28;20030;-60
2021/10/23 03:01:13;;;;;;;4.27;1.80;;;;;;;19.87;44.31;102404.09;4994876;28;20076;-60
2021/10/23 03:03:38;;;;;;;3.60;1.60;;;;;;;19.86;44.39;102408.50;4995267;28;20272;-60
2021/10/23 03:06:03;;;;;;;4.00;1.60;;;;;;;19.86;44.37;102419.09;4994337;28;20023;-59
2021/10/23 03:08:28;;;;;;;2.93;1.60;;;;;;;19.86;44.55;102415.59;4995392;28;20314;-60
2021/10/23 03:10:54;;;;;;;3.35;1.55;;;;;;;19.83;44.45;102406.06;4995135;28;20296;-60
2021/10/23 03:13:22;;;;;;;3.70;1.60;;;;;;;19.83;44.43;102410.50;4994150;28;20034;-60
2021/10/23 03:15:53;;;;;;;3.95;1.63;;;;;;;19.83;44.31;102415.81;4994113;28;20037;-62
2021/10/23 03:18:18;;;;;;;3.42;1.60;;;;;;;19.82;44.59;102412.31;4994675;28;20061;-61
2021/10/23 03:20:43;;;;;;;3.08;1.58;;;;;;;19.81;44.56;102417.69;4994247;28;20054;-60
2021/10/23 03:23:12;;;;;;;3.93;1.77;;;;;;;19.81;44.26;102417.69;4994501;28;20035;-61
2021/10/23 03:25:38;;;;;;;2.92;1.50;;;;;;;19.79;44.38;102423.09;4995055;28;20288;-60
2021/10/23 03:28:03;;;;;;;3.47;1.60;;;;;;;19.79;44.14;102414.28;4993846;28;20035;-60
2021/10/23 03:30:29;;;;;;;3.50;1.48;;;;;;;19.78;44.26;102426.66;4994851;28;20045;-60
2021/10/23 03:33:14;;;;;;;3.72;1.73;;;;;;;19.78;44.27;102429.31;4994090;28;20598;-60
2021/10/23 03:35:43;;;;;;;3.25;1.75;;;;;;;19.78;44.33;102436.41;4987764;28;20510;-60
2021/10/23 03:38:08;;;;;;;4.55;1.80;;;;;;;19.77;44.17;102435.53;4994537;28;20084;-60
2021/10/23 03:40:33;;;;;;;2.92;1.55;;;;;;;19.77;44.40;102448.78;4994012;28;20492;-60
2021/10/23 03:42:59;;;;;;;4.25;2.05;;;;;;;19.75;44.24;102440.91;4993805;28;20051;-60
2021/10/23 03:45:25;;;;;;;2.95;1.58;;;;;;;19.74;44.23;102441.88;4994570;28;20076;-60
2021/10/23 03:47:50;;;;;;;3.28;1.45;;;;;;;19.75;44.36;102440.06;4993858;28;20054;-59
2021/10/23 03:50:15;;;;;;;3.35;1.73;;;;;;;19.74;44.45;102439.22;4994201;28;20061;-61
2021/10/23 03:52:40;;;;;;;4.00;1.70;;;;;;;19.74;44.27;102444.50;4994489;28;20486;-59
2021/10/23 03:55:10;;;;;;;4.80;3.00;;;;;;;19.73;44.21;102453.38;4992822;28;20632;-60
2021/10/23 03:57:36;;;;;;;3.58;1.77;;;;;;;19.71;44.32;102450.00;4993822;28;20295;-60
2021/10/23 04:00:04;;;;;;;3.63;1.77;;;;;;;19.71;44.45;102443.84;4993872;28;20453;-60
2021/10/23 04:02:31;;;;;;;3.95;1.88;;;;;;;19.71;44.56;102457.06;4993703;28;20018;-61
2021/10/23 04:04:58;;;;;;;4.53;2.22;;;;;;;19.71;44.36;102462.34;4994379;28;20421;-60
2021/10/23 04:07:24;;;;;;;3.85;1.98;;;;;;;19.71;44.39;102457.06;4994291;28;20105;-59
2021/10/23 04:09:49;;;;;;;5.28;2.10;;;;;;;19.69;44.12;102465.13;4993381;28;20157;-60
2021/10/23 04:12:15;;;;;;;3.85;1.88;;;;;;;19.69;44.47;102461.59;4993669;28;20045;-60
2021/10/23 04:14:40;;;;;;;4.30;2.00;;;;;;;19.69;44.58;102459.81;4993808;28;20038;-60
2021/10/23 04:17:05;;;;;;;4.93;2.30;;;;;;;19.68;44.31;102460.75;4992712;28;20023;-60
2021/10/23 04:19:31;;;;;;;4.32;2.13;;;;;;;19.69;44.37;102458.97;4994140;28;20113;-59
2021/10/23 04:21:57;;;;;;;4.22;1.80;;;;;;;19.68;44.39;102454.63;4993563;28;20030;-59
2021/10/23 04:24:22;;;;;;;3.78;2.15;;;;;;;19.68;44.59;102462.56;4992869;28;20033;-61
2021/10/23 04:26:49;;;;;;;4.67;2.17;;;;;;;19.68;44.53;102467.84;4993374;28;20035;-59
2021/10/23 04:29:14;;;;;;;3.88;1.98;;;;;;;19.67;44.63;102466.97;4992358;28;20268;-59
2021/10/23 04:31:39;;;;;;;4.18;2.10;;;;;;;19.66;44.39;102467.94;4993615;28;20039;-59
2021/10/23 04:34:05;;;;;;;5.00;2.43;;;;;;;19.67;44.54;102463.50;4993238;28;20030;-60
2021/10/23 04:36:30;;;;;;;4.35;2.10;;;;;;;19.68;44.50;102467.84;4992744;28;20748;-60
2021/10/23 04:38:55;;;;;;;4.10;2.13;;;;;;;19.66;44.33;102460.00;4993327;28;20022;-60
2021/10/23 04:41:21;;;;;;;4.00;2.20;;;;;;;19.66;44.44;102459.16;4993290;28;20303;-59
2021/10/23 04:43:46;;;;;;;4.80;2.22;;;;;;;19.66;44.77;102464.44;4992620;28;20073;-59
2021/10/23 04:46:11;;;;;;;4.10;2.30;;;;;;;19.64;44.61;102450.47;4992981;28;20047;-60
2021/10/23 04:48:37;;;;;;;4.83;2.33;;;;;;;19.63;44.50;102452.28;4993725;28;20275;-60
2021/10/23 04:51:05;;;;;;;5.28;2.60;;;;;;;19.62;44.62;102455.00;4992455;28;20784;-59
2021/10/23 04:53:31;;;;;;;5.25;2.33;;;;;;;19.61;44.52;102448.84;4993333;28;20470;-60
2021/10/23 04:55:56;;;;;;;4.47;2.60;;;;;;;19.61;44.71;102450.66;4993016;28;20129;-60
2021/10/23 04:58:22;;;;;;;4.10;2.30;;;;;;;19.61;44.73;102451.50;4992261;28;20161;-60
2021/10/23 05:00:50;;;;;;;4.45;2.60;;;;;;;19.60;44.65;102456.88;4993367;28;20109;-59
2021/10/23 05:03:15;;;;;;;5.25;2.45;;;;;;;19.60;44.56;102451.59;4992853;28;20097;-60
2021/10/23 05:05:40;;;;;;;4.90;2.30;;;;;;;19.60;44.59;102460.41;4992425;28;20478;-60
2021/10/23 05:08:06;;;;;;;5.47;2.60;;;;;;;19.61;44.77;102464.72;4992707;28;20680;-60
2021/10/23 05:10:31;;;;;;;4.53;2.47;;;;;;;19.66;44.85;102469.72;4992978;28;20348;-59
2021/10/23 05:12:56;;;;;;;4.40;2.33;;;;;;;19.71;44.66;102471.16;4991833;28;20038;-61
2021/10/23 05:15:22;;;;;;;5.07;2.50;;;;;;;19.76;44.70;102468.25;4992996;28;20065;-60
2021/10/23 05:17:47;;;;;;;4.72;2.28;;;;;;;19.79;44.59;102473.34;4992825;28;20370;-60
2021/10/23 05:20:13;;;;;;;3.88;2.10;;;;;;;19.82;44.33;102472.28;4991768;28;20081;-60
2021/10/23 05:22:38;;;;;;;4.97;2.20;;;;;;;19.86;44.18;102463.22;4992915;28;20026;-59
2021/10/23 05:25:05;;;;;;;5.32;2.45;;;;;;;19.87;44.28;102465.78;4992492;28;20041;-58
2021/10/23 05:27:30;;;;;;;4.53;2.47;;;;;;;19.98;44.58;102461.59;4991821;28;20045;-59
2021/10/23 05:29:57;;;;;;;4.35;2.13;;;;;;;20.10;44.69;102471.41;4992727;28;20113;-59
2021/10/23 05:32:22;;;;;;;4.18;2.08;;;;;;;20.20;44.75;102472.53;4992239;28;20482;-59
2021/10/23 05:34:47;;;;;;;4.13;2.10;;;;;;;20.28;44.81;102477.28;4992455;28;20073;-59
2021/10/23 05:37:13;;;;;;;3.80;2.00;;;;;;;20.36;44.75;102469.72;4992368;28;20550;-59
2021/10/23 05:39:39;;;;;;;4.35;1.95;;;;;;;20.44;44.78;102462.13;4994718;28;20492;-60
2021/10/23 05:42:04;;;;;;;4.72;2.20;;;;;;;20.51;44.71;102462.56;4996199;28;20080;-60
2021/10/23 05:44:29;;;;;;;4.97;2.20;;;;;;;20.59;44.38;102468.19;4997002;28;20081;-59
2021/10/23 05:46:55;;;;;;;4.37;2.20;;;;;;;20.67;44.23;102473.03;4995965;28;20398;-60
2021/10/23 05:49:20;;;;;;;3.90;1.77;;;;;;;20.73;44.34;102479.69;4996622;28;20284;-60
2021/10/23 05:51:46;;;;;;;4.38;2.00;;;;;;;20.77;44.03;102481.19;4996687;28;20109;-60
2021/10/23 05:54:12;;;;;;;3.70;1.92;;;;;;;20.82;44.07;102487.03;4995283;28;20105;-60
2021/10/23 05:56:37;;;;;;;4.50;1.75;;;;;;;20.84;44.21;102488.63;4996355;28;20451;-59
2021/10/23 05:59:12;;;;;;;4.40;2.05;;;;;;;20.87;43.94;102498.19;4996237;28;20039;-60
2021/10/23 06:01:38;;;;;;;3.75;1.85;;;;;;;20.90;43.97;102500.59;4995788;28;20111;-59
2021/10/23 06:04:04;;;;;;;3.97;2.00;;;;;;;20.94;44.03;102501.28;4996132;28;20545;-61
2021/10/23 06:06:33;;;;;;;5.13;3.13;;;;;;;20.89;42.80;102509.53;4996379;28;20030;-62
2021/10/23 06:09:00;;;;;;;5.57;2.97;;;;;;;20.88;43.52;102506.97;4995150;28;20479;-60
2021/10/23 06:11:25;;;;;;;5.05;2.67;;;;;;;20.87;43.81;102514.09;4996350;28;20113;-61
2021/10/23 06:13:52;;;;;;;6.38;3.50;;;;;;;20.85;43.26;102510.66;4996336;28;20120;-60
2021/10/23 06:16:17;;;;;;;5.32;2.67;;;;;;;20.89;43.65;102519.28;4995214;28;20052;-60
2021/10/23 06:18:42;;;;;;;4.53;2.30;;;;;;;20.90;43.82;102526.25;4996192;28;20474;-60
2021/10/23 06:21:08;;;;;;;3.63;1.90;;;;;;;20.91;43.70;102527.97;4995732;28;20022;-60
2021/10/23 06:23:33;;;;;;;4.43;1.80;;;;;;;20.93;43.74;102526.91;4995730;28;20272;-61
2021/10/23 06:26:00;;;;;;;4.80;2.33;;;;;;;20.94;43.81;102525.97;4995697;28;20508;-60
2021/10/23 06:28:25;;;;;;;4.18;2.10;;;;;;;20.96;43.93;102534.66;4996106;28;20034;-61
2021/10/23 06:30:50;;;;;;;3.67;1.75;;;;;;;20.95;44.01;102535.63;4995432;28;20378;-61
2021/10/23 06:33:19;;;;;;;4.28;2.05;;;;;;;20.97;43.96;102539.00;4995809;28;20500;-61
2021/10/23 06:36:07;;;;;;;4.30;2.30;;;;;;;20.95;44.00;102543.56;4995171;28;20034;-59
2021/10/23 06:38:32;;;;;;;4.30;2.10;;;;;;;20.96;43.76;102539.13;4992933;28;20073;-60
2021/10/23 06:40:58;;;;;;;5.45;2.10;;;;;;;20.97;43.78;102540.81;4995500;28;20026;-60
2021/10/23 06:43:25;;;;;;;5.72;2.20;;;;;;;20.94;43.44;102541.88;4996903;28;20034;-60
2021/10/23 06:45:50;;;;;;;4.47;2.28;;;;;;;20.99;43.26;102550.34;4996558;28;20100;-61
2021/10/23 06:48:19;;;;;;;4.57;2.50;;;;;;;21.08;43.35;102551.56;4995572;28;20529;-61
2021/10/23 06:50:44;;;;;;;3.78;1.92;;;;;;;21.17;43.37;102550.94;4994062;28;20039;-61
2021/10/23 06:53:09;;;;;;;4.40;2.00;;;;;;;21.24;43.28;102558.44;4995337;28;20042;-61
2021/10/23 06:55:34;;;;;;;4.38;2.00;;;;;;;21.27;43.16;102547.63;4995364;28;20065;-61
2021/10/23 06:58:00;;;;;;;4.43;2.20;;;;;;;21.31;43.44;102563.22;4994629;28;20486;-60
2021/10/23 07:00:25;;;;;;;4.20;2.20;;;;;;;21.36;42.96;102553.19;4995422;28;20080;-61
2021/10/23 07:02:50;;;;;;;4.10;1.88;;;;;;;21.37;42.94;102559.34;4995574;28;20278;-61
2021/10/23 07:05:18;;;;;;;4.60;2.20;;;;;;;21.38;42.77;102561.88;4994317;28;20054;-60
2021/10/23 07:07:43;;;;;;;4.03;2.10;;;;;;;21.36;42.77;102571.75;4995241;28;20033;-61
2021/10/23 07:10:13;;;;;;;4.22;2.15;;;;;;;21.32;43.00;102575.56;4994962;28;20026;-60
2021/10/23 07:12:38;;;;;;;3.95;2.20;;;;;;;21.27;43.00;102577.69;4994598;28;20022;-60
2021/10/23 07:15:04;;;;;;;4.78;2.28;;;;;;;21.19;43.35;102583.50;4994474;28;20108;-61
2021/10/23 07:17:30;;;;;;;4.25;2.25;;;;;;;21.20;43.02;102593.16;4994967;28;20045;-61
2021/10/23 07:19:55;;;;;;;4.22;2.25;;;;;;;21.24;43.24;102584.97;4994095;28;20026;-61
2021/10/23 07:22:21;;;;;;;3.78;2.13;;;;;;;21.28;43.32;102589.97;4994799;28;20057;-61
2021/10/23 07:24:47;;;;;;;4.20;2.40;;;;;;;21.32;42.87;102595.94;4995023;28;20022;-61
2021/10/23 07:27:12;;;;;;;4.40;2.35;;;;;;;21.33;43.14;102598.47;4993657;28;20419;-61
2021/10/23 07:29:37;;;;;;;3.65;2.13;;;;;;;21.33;43.16;102598.47;4994798;28;20121;-62
2021/10/23 07:32:03;;;;;;;4.55;2.20;;;;;;;21.34;43.38;102599.31;4993696;28;20034;-63
2021/10/23 07:34:28;;;;;;;4.60;2.10;;;;;;;21.33;43.38;102606.44;4994203;28;20386;-61
2021/10/23 07:36:54;;;;;;;4.45;2.83;;;;;;;21.29;43.03;102610.22;4994906;28;20080;-61
2021/10/23 07:39:19;;;;;;;3.87;2.10;;;;;;;21.28;43.45;102612.97;4993840;28;20023;-60
2021/10/23 07:41:46;;;;;;;5.03;2.65;;;;;;;21.24;43.63;102622.97;4994857;28;20068;-62
2021/10/23 07:44:11;;;;;;;4.93;2.60;;;;;;;21.20;43.60;102627.63;4994229;28;20034;-61
2021/10/23 07:46:37;;;;;;;4.90;2.10;;;;;;;21.14;44.03;102630.69;4993681;28;20042;-61
2021/10/23 07:49:04;;;;;;;4.05;2.03;;;;;;;21.10;43.97;102631.81;4993982;28;20367;-61
2021/10/23 07:51:32;;;;;;;4.35;2.35;;;;;;;21.07;44.33;102639.97;4994478;28;20018;-62
2021/10/23 07:53:57;;;;;;;4.55;2.17;;;;;;;21.03;44.37;102646.44;4993012;28;20027;-65
2021/10/23 07:56:23;;;;;;;5.03;2.65;;;;;;;21.00;44.74;102651.94;4994309;28;20029;-64
2021/10/23 07:58:48;;;;;;;4.95;2.20;;;;;;;21.00;44.79;102655.44;4994277;28;20042;-63
2021/10/23 08:01:15;;;;;;;5.85;2.95;;;;;;;20.96;44.64;102661.03;4992589;28;20038;-63
2021/10/23 08:03:40;;;;;;;5.40;2.40;;;;;;;20.96;44.82;102658.38;4993979;28;20058;-63
2021/10/23 08:06:09;;;;;;;4.30;2.33;;;;;;;20.98;45.02;102657.34;4993881;28;20057;-62
2021/10/23 08:08:35;;;;;;;6.35;2.60;;;;;;;21.08;44.76;102662.88;4993185;28;20454;-63
2021/10/23 08:11:01;;;;;;;4.38;2.00;;;;;;;21.16;44.59;102662.38;4993670;28;20030;-63
2021/10/23 08:13:27;;;;;;;3.47;1.90;;;;;;;21.22;44.49;102663.78;4994289;28;20034;-63
2021/10/23 08:15:53;;;;;;;5.53;2.20;;;;;;;21.25;44.39;102666.22;4993024;28;20034;-63
2021/10/23 08:18:19;;;;;;;4.45;2.42;;;;;;;21.26;44.31;102667.94;4993450;28;20037;-63
2021/10/23 08:20:44;;;;;;;4.43;2.38;;;;;;;21.23;44.35;102676.94;4993754;28;20442;-62
2021/10/23 08:23:09;;;;;;;4.00;2.20;;;;;;;21.22;44.44;102675.25;4992815;28;20038;-63
2021/10/23 08:25:35;;;;;;;5.00;2.53;;;;;;;21.23;44.60;102668.13;4993812;28;20034;-60
2021/10/23 08:28:00;;;;;;;3.95;2.20;;;;;;;21.23;44.52;102668.97;4993335;28;20093;-61
2021/10/23 08:30:26;;;;;;;4.60;2.50;;;;;;;21.17;44.63;102670.25;4992877;28;20061;-61
2021/10/23 08:32:51;;;;;;;5.40;2.60;;;;;;;21.13;44.57;102662.59;4993393;28;20378;-61
2021/10/23 08:35:18;;;;;;;4.55;2.63;;;;;;;21.06;44.83;102672.75;4992478;28;20113;-60
2021/10/23 08:37:45;;;;;;;4.78;2.58;;;;;;;21.06;44.84;102682.47;4993777;28;20034;-60
2021/10/23 08:40:21;;;;;;;5.22;2.67;;;;;;;21.13;44.93;102686.44;4993260;28;20073;-62
2021/10/23 08:42:47;;;;;;;5.03;2.40;;;;;;;21.22;44.72;102688.50;4992976;28;20026;-61
2021/10/23 08:45:14;;;;;;;6.03;2.50;;;;;;;21.27;44.57;102694.34;4992961;28;20529;-60
2021/10/23 08:47:40;;;;;;;4.10;2.30;;;;;;;21.31;44.61;102690.53;4993336;28;20023;-61
2021/10/23 08:50:09;;;;;;;5.57;2.50;;;;;;;21.34;44.66;102692.97;4992090;28;20026;-61
2021/10/23 08:52:34;;;;;;;4.07;2.15;;;;;;;21.34;44.55;102692.13;4993183;28;20431;-62
2021/10/23 08:55:00;;;;;;;5.03;2.35;;;;;;;21.34;44.87;102689.47;4992748;28;20093;-60
2021/10/23 08:57:27;;;;;;;4.32;2.33;;;;;;;21.29;44.63;102689.78;4992429;28;20022;-60
2021/10/23 08:59:53;;;;;;;4.45;2.50;;;;;;;21.25;44.80;102690.09;4993110;28;20146;-65
2021/10/23 09:02:21;;;;;;;5.43;2.70;;;;;;;21.23;44.88;102690.19;4992792;28;20042;-62
2021/10/23 09:04:50;;;;;;;6.28;2.30;;;;;;;21.17;45.08;102691.44;4992498;28;20033;-63
2021/10/23 09:07:16;;;;;;;5.80;2.55;;;;;;;21.11;45.14;102688.31;4992808;28;20088;-60
2021/10/23 09:09:53;;;;;;;4.70;2.72;;;;;;;21.11;45.20;102690.97;4993211;28;20048;-61
2021/10/23 09:12:26;;;;;;;4.55;2.67;;;;;;;21.07;45.35;102692.16;4991747;28;20544;-61
2021/10/23 09:15:15;;;;;;;5.43;2.53;;;;;;;21.03;45.50;102688.84;4992573;28;20125;-60
2021/10/23 09:17:47;;;;;;;4.10;2.55;;;;;;;21.01;45.50;102690.72;4992316;28;20198;-60
2021/10/23 09:20:17;;;;;;;4.93;2.53;;;;;;;20.97;45.66;102706.00;4992594;28;20019;-63
2021/10/23 09:22:47;;;;;;;4.07;2.30;;;;;;;20.99;45.58;102698.78;4992787;28;20035;-63
2021/10/23 09:25:27;;;;;;;4.95;2.55;;;;;;;21.12;45.46;102704.13;4991620;28;20076;-63
2021/10/23 09:28:05;;;;;;;4.22;2.20;;;;;;;21.22;45.12;102699.09;4992724;28;20493;-61
2021/10/23 09:30:34;;;;;;;4.90;2.15;;;;;;;21.24;45.14;102699.84;4992914;28;20081;-63
2021/10/23 09:33:06;;;;;;;4.40;2.30;;;;;;;21.26;45.00;102708.53;4990452;28;20081;-62
2021/10/23 09:35:44;;;;;;;4.05;2.00;;;;;;;21.24;45.24;102707.81;4992644;28;20046;-61
2021/10/23 09:38:11;;;;;;;4.72;2.70;;;;;;;21.21;45.26;102713.31;4991694;28;20038;-62
2021/10/23 09:40:38;;;;;;;4.07;2.20;;;;;;;21.17;45.31;102712.66;4991997;28;20030;-62
2021/10/23 09:43:18;;;;;;;4.32;2.50;;;;;;;21.12;45.25;102708.59;4992230;28;20018;-61
2021/10/23 09:46:04;;;;;;;4.30;2.30;;;;;;;21.11;45.38;102705.09;4991890;28;20080;-61
2021/10/23 09:48:57;;;;;;;3.95;2.20;;;;;;;21.04;45.69;102709.09;4992549;28;20026;-61
2021/10/23 09:51:27;;;;;;;4.53;2.58;;;;;;;21.02;45.78;102709.19;4991522;28;20445;-59
2021/10/23 09:54:00;;;;;;;4.00;2.17;;;;;;;20.99;45.83;102708.53;4991806;28;20057;-60
2021/10/23 09:56:32;;;;;;;4.32;2.20;;;;;;;20.97;45.86;102711.28;4992511;28;20042;-60
2021/10/23 09:58:59;;;;;;;4.70;2.50;;;;;;;21.02;45.92;102711.00;4992473;28;20121;-61
2021/10/23 10:01:47;;;;;;;4.22;2.22;;;;;;;21.00;45.90;102713.75;4992123;28;20456;-60
2021/10/23 10:04:15;;;;;;;5.03;2.38;;;;;;;20.96;46.02;102719.34;4992262;28;20494;-61
2021/10/23 10:06:44;;;;;;;4.25;2.15;;;;;;;20.97;46.09;102719.25;4991998;28;20042;-61
2021/10/23 10:09:21;;;;;;;4.57;2.40;;;;;;;21.03;45.90;102728.63;4992404;28;20069;-63
2021/10/23 10:11:51;;;;;;;3.72;2.08;;;;;;;21.08;45.88;102723.84;4996752;28;20080;-61
2021/10/23 10:14:17;;;;;;;4.10;2.17;;;;;;;21.14;45.80;102723.47;4992227;28;20663;-61
2021/10/23 10:16:45;;;;;;;5.78;2.60;;;;;;;21.19;45.66;102721.34;4993069;28;20043;-61
2021/10/23 10:19:16;;;;;;;4.25;2.53;;;;;;;21.26;45.57;102728.91;4992282;28;20070;-60
2021/10/23 10:21:42;;;;;;;4.13;2.10;;;;;;;21.35;45.25;102734.47;4992338;28;20399;-61
2021/10/23 10:24:25;;;;;;;4.00;2.05;;;;;;;21.41;45.06;102730.53;4993257;28;20045;-61
2021/10/23 10:27:19;;;;;;;4.28;2.15;;;;;;;21.45;45.27;102731.22;4996188;28;20041;-60
2021/10/23 10:30:05;;;;;;;4.38;2.20;;;;;;;21.50;45.06;102740.59;4992873;28;20054;-60
2021/10/23 10:32:36;;;;;;;5.10;2.30;;;;;;;21.51;44.84;102733.50;4996112;28;20117;-60
2021/10/23 10:35:43;;;;;;;4.57;2.10;;;;;;;21.48;45.00;102720.41;4994861;28;20038;-61
2021/10/23 10:43:09;;;;;;;6.28;2.10;;;;;;;21.40;45.17;102728.03;4994793;28;20022;-60
2021/10/23 10:45:52;;;;;;;4.55;2.10;;;;;;;21.36;45.23;102720.28;4995684;28;20429;-61
2021/10/23 10:48:37;;;;;;;6.13;2.95;;;;;;;21.34;45.24;102721.31;4995259;28;20080;-59
2021/10/23 10:51:05;;;;;;;5.22;2.33;;;;;;;21.32;45.41;102718.75;4994961;28;20043;-60
2021/10/23 10:53:35;;;;;;;6.68;2.75;;;;;;;21.29;45.42;102713.66;4995104;28;20391;-61
2021/10/23 10:56:17;;;;;;;5.03;2.55;;;;;;;21.28;45.52;102717.25;4994129;28;20058;-61
2021/10/23 10:58:53;;;;;;;5.50;2.45;;;;;;;21.29;45.61;102713.66;4995288;28;20109;-61
2021/10/23 11:01:21;;;;;;;5.30;2.50;;;;;;;21.31;45.71;102719.69;4994958;28;20397;-61
2021/10/23 11:03:58;;;;;;;6.90;2.40;;;;;;;21.36;45.57;102722.03;4995084;28;20034;-60
2021/10/23 11:06:38;;;;;;;4.30;2.35;;;;;;;21.42;45.68;102713.69;4996568;28;20118;-61
2021/10/23 11:09:16;;;;;;;4.32;1.83;;;;;;;21.46;45.54;102722.28;4995043;28;20038;-61
2021/10/23 11:11:50;;;;;;;5.80;2.13;;;;;;;21.53;45.34;102727.13;4995395;28;20432;-61
2021/10/23 11:16:55;;;;;;;5.45;2.20;;;;;;;21.62;45.24;102723.03;4995535;28;20046;-62
2021/10/23 11:19:38;;;;;;;5.30;2.35;;;;;;;21.64;45.42;102713.16;4995222;28;20067;-62
2021/10/23 11:22:23;;;;;;;3.72;2.03;;;;;;;21.72;45.42;102717.94;4995091;28;20042;-60
2021/10/23 11:25:12;;;;;;;4.32;2.28;;;;;;;21.73;45.29;102709.88;4994841;28;20034;-61
2021/10/23 11:27:42;;;;;;;4.28;2.13;;;;;;;21.76;45.10;102713.28;4994825;28;20394;-61
2021/10/23 11:30:09;;;;;;;4.15;1.88;;;;;;;21.77;45.03;102712.31;4994977;28;20038;-60
2021/10/23 11:32:37;;;;;;;7.53;2.33;;;;;;;21.74;44.99;102716.03;4994274;28;20043;-60
2021/10/23 11:35:03;;;;;;;4.43;2.22;;;;;;;21.72;44.96;102705.50;4995339;28;20030;-61